Altoona, AL (35952)

11:03 PM CST on February 06, 2016 (GMT -0600)
Palisades Park | | Change Station
CLOSE
Current Station
Personal Weather Station
Location: Oneonta, AL
Elevation: 1302 ft
Nearby Weather Stations

Elev 1302 ft 33.99 °N, 86.46 °W | Updated 4 minutes ago

Mostly Cloudy
Mostly Cloudy
38.3 °F
Feels Like 34 °F
N
6.0
Wind Variable Wind from NNW
Gusts 9.0 mph

Today
High -- | Low -- °F
--% Chance of Precip.
Yesterday
High -- | Low -- °F
Precip. -- in
Pressure 30.35 in
Visibility 10.0 miles
Clouds Clear
Windchill 34 °F
Dew Point 19 °F
Humidity 46%
Rainfall 0.00 in
Snow Depth Not available.
6:38 AM 5:20 PM
Waning Crescent, 3% visible
METAR KGAD 070456Z AUTO 00000KT 10SM CLR M02/M04 A3028 RMK AO2 SLP275 T10221039 FZRANO
Pressure 30.35 in
Visibility 10.0 miles
Clouds Clear
Windchill 34 °F
Dew Point 19 °F
Humidity 46%
Rainfall 0.00 in
Snow Depth Not available.
6:38 AM 5:20 PM
Waning Crescent, 3% visible
METAR KGAD 070456Z AUTO 00000KT 10SM CLR M02/M04 A3028 RMK AO2 SLP275 T10221039 FZRANO

10-Day Weather Forecast

Almanac

Astronomy

Feb. 06, 2016 Rise Set
Actual Time
Civil Twilight
Nautical Twilight
Astronomical Twilight
Moon
Length of Visible Light
Length of Day
Tomorrow will be .
, % of the Moon is Illuminated

Today's Extremes

State Highs State Lows

Community

WunderPhotos

Upload Photos

1,891,157 photos uploaded!

WunderBlog® & News

Nearby

Air Quality

  Air Quality AQ Index Pollutant
Not available.

Snow Depth

Station Depth Elevation

Earthquake Activity

City Distance Mag. Time & Date
Minimum magnitude displayed is 2.5.

Coastal Water Temperatures

Place Temperature

Stations

Nearby Weather Stations

Station Location Temp. Windchill Dew Point Humidity Wind Precip. Elev Updated Type
                   

Watches & Warnings

There are currently no watches in effect.